Time;durP1;ratioP1;P1;durP2;ratioP2;P2;SDS_P1;SDS_P2;PMS_P1;PMS_P2;Temp;Humidity;BMP_temperature;BMP_pressure;BME280_temperature;BME280_humidity;BME280_pressure;Samples;Min_cycle;Max_cycle;Signal;HPM_P1;HPM_P2
2021/03/20 00:01:49;;;;;;;8.63;3.97;;;;;;;2.42;78.87;102982.97;5095413;28;20103;-40
2021/03/20 00:04:15;;;;;;;9.30;4.15;;;;;;;2.33;79.13;102977.41;5095192;28;20358;-40
2021/03/20 00:06:44;;;;;;;6.72;3.65;;;;;;;2.39;78.72;102980.53;5095061;28;20396;-40
2021/03/20 00:09:13;;;;;;;7.28;4.47;;;;;;;2.34;79.31;102986.25;5095531;28;20024;-40
2021/03/20 00:11:41;;;;;;;9.15;4.07;;;;;;;2.35;78.60;102984.47;5094933;28;20384;-40
2021/03/20 00:14:07;;;;;;;7.18;4.05;;;;;;;2.38;78.73;102992.22;5096066;28;20035;-40
2021/03/20 00:16:32;;;;;;;5.45;3.97;;;;;;;2.41;78.71;102992.81;5095491;28;20031;-40
2021/03/20 00:18:57;;;;;;;10.43;4.40;;;;;;;2.31;78.69;102984.69;5095259;28;20495;-40
2021/03/20 00:21:23;;;;;;;6.57;3.90;;;;;;;2.29;78.27;102984.00;5094717;28;20436;-40
2021/03/20 00:23:48;;;;;;;9.07;4.23;;;;;;;2.28;78.99;102986.75;5094099;28;20035;-40
2021/03/20 00:26:14;;;;;;;8.53;4.03;;;;;;;2.22;78.21;102993.44;5094794;28;20028;-40
2021/03/20 00:28:40;;;;;;;8.95;4.63;;;;;;;2.21;78.95;102991.75;5094963;28;20306;-40
2021/03/20 00:31:11;;;;;;;9.27;4.57;;;;;;;2.04;78.54;102987.75;5094892;28;20032;-40
2021/03/20 00:33:41;;;;;;;6.47;4.22;;;;;;;2.02;79.16;102989.72;5094524;28;20098;-41
2021/03/20 00:36:08;;;;;;;9.00;4.30;;;;;;;1.89;80.16;102980.13;5095392;28;20117;-40
2021/03/20 00:38:33;;;;;;;;;;;;;;;1.95;79.53;102984.97;5094963;28;20032;-40
2021/03/20 00:40:58;;;;;;;8.38;4.22;;;;;;;1.90;79.71;102987.16;5095432;28;19919;-40
2021/03/20 00:43:25;;;;;;;7.67;4.60;;;;;;;1.92;79.55;102993.25;5094420;28;20024;-40
2021/03/20 00:45:51;;;;;;;7.63;4.20;;;;;;;1.90;79.30;102998.69;5094573;28;20127;-40
2021/03/20 00:48:28;;;;;;;8.32;4.50;;;;;;;1.92;79.42;103001.25;5093559;28;20468;-41
2021/03/20 00:50:55;;;;;;;8.85;4.65;;;;;;;1.89;79.57;102998.81;5095359;28;20432;-40
2021/03/20 00:53:21;;;;;;;7.57;5.22;;;;;;;1.89;80.07;103005.00;5094449;28;20028;-40
2021/03/20 00:55:46;;;;;;;8.82;5.22;;;;;;;1.79;79.88;103002.19;5095071;28;20028;-40
2021/03/20 00:58:24;;;;;;;10.25;4.95;;;;;;;1.84;80.29;103003.66;5094908;28;20035;-40
2021/03/20 01:00:51;;;;;;;6.03;4.78;;;;;;;1.87;80.06;103000.75;5094478;28;20138;-40
2021/03/20 01:03:17;;;;;;;10.77;5.55;;;;;;;1.78;80.15;102989.00;5094188;28;20032;-40
2021/03/20 01:05:43;;;;;;;8.10;5.05;;;;;;;1.79;79.93;103002.19;5094220;28;20050;-40
2021/03/20 01:08:08;;;;;;;7.90;4.82;;;;;;;1.81;79.51;103004.78;5094166;28;20024;-40
2021/03/20 01:10:35;;;;;;;9.50;5.43;;;;;;;1.75;79.38;103007.91;5094475;28;20457;-40
2021/03/20 01:13:00;;;;;;;9.40;4.60;;;;;;;1.72;80.11;103018.81;5094078;28;20434;-40
2021/03/20 01:15:26;;;;;;;8.70;5.80;;;;;;;1.66;79.72;103020.16;5093055;28;20039;-40
2021/03/20 01:17:51;;;;;;;10.73;5.27;;;;;;;1.65;79.68;103020.25;5093921;28;20054;-40
2021/03/20 01:20:17;;;;;;;9.43;5.20;;;;;;;1.57;80.15;103026.19;5092832;28;20044;-40
2021/03/20 01:22:43;;;;;;;9.17;5.00;;;;;;;1.56;81.31;103016.47;5093657;28;20036;-40
2021/03/20 01:25:09;;;;;;;8.65;5.38;;;;;;;1.47;80.86;103017.22;5094206;28;20043;-40
2021/03/20 01:27:35;;;;;;;8.93;5.43;;;;;;;1.46;80.83;103028.81;5093872;28;20484;-40
2021/03/20 01:30:01;;;;;;;10.60;5.47;;;;;;;1.47;80.72;103025.22;5094135;28;20052;-40
2021/03/20 01:32:26;;;;;;;7.00;4.97;;;;;;;1.44;80.37;103028.09;5093875;28;20028;-40
2021/03/20 01:34:52;;;;;;;8.40;5.27;;;;;;;1.38;81.33;103034.75;5094657;28;20028;-40
2021/03/20 01:37:17;;;;;;;8.50;5.00;;;;;;;1.49;80.30;103034.78;5093545;28;20101;-40
2021/03/20 01:39:42;;;;;;;7.97;5.60;;;;;;;1.44;80.74;103030.78;5094318;28;20478;-40
2021/03/20 01:42:09;;;;;;;8.87;5.50;;;;;;;1.45;80.65;103035.97;5093745;28;20024;-40
2021/03/20 01:44:34;;;;;;;;;;;;;;;1.54;79.89;103040.59;5094385;28;20031;-40
2021/03/20 01:47:01;;;;;;;10.55;5.00;;;;;;;1.51;80.27;103046.19;5093366;28;19908;-40
2021/03/20 01:49:35;;;;;;;8.02;5.57;;;;;;;1.48;80.68;103045.56;5093713;28;20032;-41
2021/03/20 01:52:10;;;;;;;9.55;5.50;;;;;;;1.41;80.22;103044.31;5093610;28;20074;-40
2021/03/20 01:54:44;;;;;;;9.73;4.97;;;;;;;1.41;80.99;103045.16;5093842;28;20031;-40
2021/03/20 01:57:12;;;;;;;8.70;5.50;;;;;;;1.31;81.08;103048.66;5093830;28;20023;-40
2021/03/20 01:59:38;;;;;;;8.93;6.25;;;;;;;1.30;81.28;103047.81;5091938;28;20039;-40
2021/03/20 02:02:03;;;;;;;7.77;5.23;;;;;;;1.27;80.93;103040.91;5093820;28;20025;-40
2021/03/20 02:04:28;;;;;;;7.60;5.30;;;;;;;1.28;81.50;103045.28;5093779;28;20120;-40
2021/03/20 02:06:54;;;;;;;7.80;5.47;;;;;;;1.32;80.63;103042.34;5093770;28;20043;-40
2021/03/20 02:09:19;;;;;;;9.80;5.67;;;;;;;1.24;81.19;103040.28;5094057;28;20028;-40
2021/03/20 02:11:56;;;;;;;8.97;5.67;;;;;;;1.20;81.42;103034.34;5092330;28;20040;-40
2021/03/20 02:14:42;;;;;;;8.77;5.73;;;;;;;1.27;80.49;103032.94;5093988;28;20353;-40
2021/03/20 02:17:09;;;;;;;8.15;6.07;;;;;;;1.19;81.29;103027.31;5093672;28;20078;-40
2021/03/20 02:19:56;;;;;;;10.02;7.10;;;;;;;1.10;81.53;103033.34;5093289;28;20480;-40
2021/03/20 02:22:47;;;;;;;8.82;6.28;;;;;;;1.13;81.24;103033.13;5093439;28;20487;-40
2021/03/20 02:25:31;;;;;;;7.80;6.25;;;;;;;1.19;81.35;103023.81;5093905;28;20024;-40
2021/03/20 02:28:34;;;;;;;8.98;5.65;;;;;;;1.11;81.40;103024.38;5092989;28;20024;-40
2021/03/20 02:31:14;;;;;;;11.95;5.95;;;;;;;1.10;80.94;103021.81;5050896;28;20080;-40
2021/03/20 02:34:37;;;;;;;8.38;6.13;;;;;;;1.11;81.21;103016.38;5050740;28;20123;-40
2021/03/20 02:37:10;;;;;;;11.82;6.55;;;;;;;0.99;81.02;103019.97;4991685;28;20031;-41
2021/03/20 02:39:50;;;;;;;10.20;6.25;;;;;;;0.96;81.28;103021.03;4991396;28;20043;-41
2021/03/20 02:42:26;;;;;;;7.10;5.38;;;;;;;1.05;80.79;103018.66;4992155;28;20038;-40
2021/03/20 02:45:01;;;;;;;;;;;;;;;1.13;79.67;103014.47;4991723;28;20038;-40
2021/03/20 02:47:33;;;;;;;9.25;5.63;;;;;;;1.08;81.16;103013.97;4991714;28;19920;-40
2021/03/20 02:50:12;;;;;;;7.47;6.07;;;;;;;1.04;80.68;103020.47;4992057;28;20034;-40
2021/03/20 02:53:11;;;;;;;9.95;6.45;;;;;;;1.10;80.41;103024.50;4991597;28;20479;-40
2021/03/20 02:55:43;;;;;;;8.18;5.72;;;;;;;1.05;80.75;103021.31;4991408;28;20042;-40
2021/03/20 02:58:17;;;;;;;9.35;7.00;;;;;;;0.95;80.74;103021.16;4991308;28;20447;-40
2021/03/20 03:00:59;;;;;;;8.43;5.90;;;;;;;0.94;80.73;103024.81;4991712;28;20042;-40
2021/03/20 03:03:29;;;;;;;8.57;6.50;;;;;;;0.85;81.34;103026.31;4994538;28;20053;-40
2021/03/20 03:06:03;;;;;;;12.50;6.30;;;;;;;0.81;81.56;103032.84;5047848;28;20041;-40
2021/03/20 03:08:32;;;;;;;12.57;6.10;;;;;;;0.91;81.07;103035.69;5092922;28;20078;-40
2021/03/20 03:11:07;;;;;;;8.13;6.28;;;;;;;0.80;81.23;103035.63;5096769;28;20025;-40
2021/03/20 03:13:39;;;;;;;7.82;6.03;;;;;;;0.72;81.35;103037.03;5096763;28;20354;-40
2021/03/20 03:16:10;;;;;;;8.45;6.07;;;;;;;0.71;81.49;103030.00;5096275;28;20035;-40
2021/03/20 03:18:44;;;;;;;7.80;6.15;;;;;;;0.81;81.54;103034.66;5096109;28;20027;-40
2021/03/20 03:21:11;;;;;;;11.82;6.80;;;;;;;0.65;81.45;103034.94;5096514;28;20597;-40
2021/03/20 03:23:39;;;;;;;10.18;6.55;;;;;;;0.58;81.56;103034.53;5096265;28;20028;-40
2021/03/20 03:26:37;;;;;;;9.98;6.75;;;;;;;0.57;81.91;103019.53;5096775;28;20119;-40
2021/03/20 03:29:09;;;;;;;8.18;6.80;;;;;;;0.64;81.41;103028.78;5092765;28;20046;-40
2021/03/20 03:32:02;;;;;;;10.05;6.75;;;;;;;0.61;81.32;103023.66;5096726;28;20130;-40
2021/03/20 03:34:56;;;;;;;7.68;5.80;;;;;;;0.64;80.93;103023.44;5054145;28;20116;-40
2021/03/20 03:37:21;;;;;;;9.77;6.15;;;;;;;0.55;80.75;103021.47;5054227;28;20408;-40
2021/03/20 03:40:00;;;;;;;7.97;6.20;;;;;;;0.62;81.47;103019.19;5053428;28;20084;-40
2021/03/20 03:42:26;;;;;;;7.65;5.78;;;;;;;0.63;81.30;103016.41;5053362;28;20033;-40
2021/03/20 03:44:54;;;;;;;8.77;6.68;;;;;;;0.61;81.18;103029.00;5053301;28;20033;-40
2021/03/20 03:47:22;;;;;;;9.05;5.95;;;;;;;0.53;81.01;103023.38;5053196;28;20029;-40
2021/03/20 03:49:48;;;;;;;7.75;6.25;;;;;;;0.59;80.68;103025.59;5053506;28;20420;-40
2021/03/20 03:52:15;;;;;;;9.03;6.07;;;;;;;0.54;80.70;103025.09;5053713;28;20044;-40
2021/03/20 03:54:41;;;;;;;8.73;6.13;;;;;;;0.54;80.92;103021.53;5053851;28;20021;-40
2021/03/20 03:57:09;;;;;;;8.82;6.68;;;;;;;0.47;80.71;103029.16;5053013;28;20037;-40
2021/03/20 04:00:03;;;;;;;7.22;6.00;;;;;;;0.46;80.58;103017.66;5053476;28;20057;-40
2021/03/20 04:02:41;;;;;;;7.82;6.10;;;;;;;0.46;80.62;103035.44;5049872;28;20044;-40
2021/03/20 04:05:06;;;;;;;7.30;5.65;;;;;;;0.45;80.19;103028.41;5053315;28;20037;-40
2021/03/20 04:07:42;;;;;;;7.67;5.63;;;;;;;0.43;80.21;103031.16;5053057;28;20163;-40
2021/03/20 04:10:31;;;;;;;9.00;5.82;;;;;;;0.50;80.28;103027.13;5052736;28;20440;-40
2021/03/20 04:13:04;;;;;;;6.88;5.90;;;;;;;0.49;80.64;103025.41;5095343;28;20067;-40
2021/03/20 04:15:56;;;;;;;9.32;5.95;;;;;;;0.45;80.13;103033.75;5095590;28;20077;-40
2021/03/20 04:18:40;;;;;;;8.60;5.90;;;;;;;0.45;80.14;103033.75;5095726;28;20094;-40
2021/03/20 04:21:29;;;;;;;8.57;5.82;;;;;;;0.45;79.71;103044.38;5095746;28;20048;-40
2021/03/20 04:24:39;;;;;;;7.88;5.97;;;;;;;0.45;79.88;103044.38;5095409;28;20030;-40
2021/03/20 04:27:11;;;;;;;10.57;6.63;;;;;;;0.23;80.11;103047.72;5052768;28;20047;-40
2021/03/20 04:29:51;;;;;;;7.28;5.88;;;;;;;0.15;79.88;103052.75;5052531;28;20445;-40
2021/03/20 04:32:40;;;;;;;8.95;6.00;;;;;;;0.14;79.62;103054.53;5052653;28;20048;-40
2021/03/20 04:35:14;;;;;;;9.98;6.68;;;;;;;-0.01;80.15;103060.94;5052312;28;20037;-40
2021/03/20 04:37:45;;;;;;;9.90;6.68;;;;;;;-0.02;81.04;103051.28;5052807;28;20400;-40
2021/03/20 04:40:23;;;;;;;8.98;5.95;;;;;;;0.01;80.45;103060.88;5052712;28;20112;-40
2021/03/20 04:42:48;;;;;;;8.55;6.18;;;;;;;-0.06;80.10;103065.75;5052177;28;20056;-40
2021/03/20 04:45:33;;;;;;;11.07;6.07;;;;;;;-0.03;80.46;103070.84;5052207;28;20072;-40
2021/03/20 04:48:04;;;;;;;8.40;6.35;;;;;;;-0.07;80.06;103070.22;5052042;28;20041;-40
2021/03/20 04:50:32;;;;;;;7.15;5.88;;;;;;;-0.11;80.50;103074.03;5052706;28;20373;-40
2021/03/20 04:52:59;;;;;;;7.68;5.88;;;;;;;-0.09;80.16;103081.94;5051783;28;20029;-40
2021/03/20 04:55:27;;;;;;;7.03;5.40;;;;;;;-0.09;79.82;103084.59;5052055;28;20036;-40
2021/03/20 04:58:13;;;;;;;7.88;5.55;;;;;;;-0.05;80.57;103078.97;5051844;28;20029;-40
2021/03/20 05:00:49;;;;;;;9.35;5.55;;;;;;;0.04;80.93;103077.44;5068921;28;20093;-40
2021/03/20 05:03:25;;;;;;;11.65;5.97;;;;;;;0.03;80.10;103069.56;5094329;28;20111;-40
2021/03/20 05:05:56;;;;;;;;;;;;;;;0.14;78.88;103078.50;5094803;28;20038;-40
2021/03/20 05:08:28;;;;;;;8.30;5.28;;;;;;;0.01;80.01;103077.66;5094482;28;19915;-40
2021/03/20 05:10:58;;;;;;;7.68;5.60;;;;;;;-0.02;79.60;103078.72;5094534;28;20036;-40
2021/03/20 05:13:42;;;;;;;7.78;5.47;;;;;;;-0.05;79.86;103073.63;5092816;28;20074;-40
2021/03/20 05:16:17;;;;;;;7.22;5.53;;;;;;;0.02;79.75;103075.88;5094901;28;20024;-40
2021/03/20 05:18:47;;;;;;;7.78;5.70;;;;;;;-0.03;79.54;103077.03;5093558;28;20020;-40
2021/03/20 05:21:32;;;;;;;6.25;4.85;;;;;;;0.05;79.85;103070.31;5093967;28;20024;-40
2021/03/20 05:23:59;;;;;;;9.60;5.60;;;;;;;-0.04;79.32;103077.16;5094251;28;20476;-40
2021/03/20 05:26:25;;;;;;;8.15;5.75;;;;;;;-0.07;79.72;103066.72;5094046;28;20024;-40
2021/03/20 05:28:50;;;;;;;7.93;5.70;;;;;;;0.01;79.61;103077.66;5094263;28;20078;-40
2021/03/20 05:31:16;;;;;;;8.00;5.60;;;;;;;-0.09;79.22;103076.63;5093612;28;20023;-40
2021/03/20 05:33:44;;;;;;;7.30;5.53;;;;;;;-0.10;79.75;103072.22;5093841;28;20028;-40
2021/03/20 05:36:09;;;;;;;6.85;5.40;;;;;;;-0.06;79.78;103066.59;5094140;28;20028;-40
2021/03/20 05:38:36;;;;;;;7.07;5.70;;;;;;;-0.12;78.93;103066.19;5094334;28;20090;-40
2021/03/20 05:41:12;;;;;;;8.63;5.75;;;;;;;-0.11;79.88;103067.88;5094188;28;20337;-40
2021/03/20 05:43:50;;;;;;;8.90;5.80;;;;;;;-0.14;79.06;103062.78;5093804;28;20426;-40
2021/03/20 05:46:40;;;;;;;6.72;5.20;;;;;;;-0.13;79.14;103069.81;5092781;28;20032;-40
2021/03/20 05:49:24;;;;;;;7.10;5.90;;;;;;;-0.20;79.30;103073.81;5093955;28;20020;-40
2021/03/20 05:52:28;;;;;;;7.72;5.40;;;;;;;-0.14;78.72;103073.44;5094171;28;20036;-40
2021/03/20 05:55:24;;;;;;;8.95;5.80;;;;;;;-0.16;79.32;103076.16;5093901;28;20035;-40
2021/03/20 05:58:22;;;;;;;6.95;5.88;;;;;;;-0.15;78.95;103077.03;5093565;28;20020;-40
2021/03/20 06:01:02;;;;;;;7.30;5.50;;;;;;;-0.08;79.28;103078.31;5093761;28;20376;-40
2021/03/20 06:03:53;;;;;;;7.85;5.60;;;;;;;-0.13;78.78;103086.59;5093863;28;20119;-40
2021/03/20 06:06:28;;;;;;;8.30;5.55;;;;;;;-0.05;78.69;103083.41;5093271;28;20040;-40
2021/03/20 06:09:01;;;;;;;6.35;5.03;;;;;;;-0.02;79.63;103083.19;5093088;28;20510;-41
2021/03/20 06:11:45;;;;;;;6.43;4.70;;;;;;;0.06;80.57;103091.50;5093458;28;20032;-41
2021/03/20 06:14:55;;;;;;;7.38;5.13;;;;;;;0.11;79.25;103091.19;5093486;28;20032;-41
2021/03/20 06:17:32;;;;;;;7.68;5.40;;;;;;;0.15;79.09;103085.53;5094195;28;20020;-41
2021/03/20 06:20:16;;;;;;;8.80;6.28;;;;;;;0.25;78.59;103091.91;5093575;28;20045;-41
2021/03/20 06:22:56;;;;;;;7.78;5.10;;;;;;;0.36;79.37;103087.63;5093678;28;20036;-40
2021/03/20 06:25:42;;;;;;;6.65;5.43;;;;;;;0.52;79.70;103091.72;5094113;28;20090;-40
2021/03/20 06:28:10;;;;;;;8.15;5.70;;;;;;;0.44;78.13;103101.22;5093352;28;20024;-40
2021/03/20 06:30:42;;;;;;;7.45;5.18;;;;;;;0.60;78.43;103109.84;5093051;28;20392;-40
2021/03/20 06:33:28;;;;;;;7.78;5.05;;;;;;;0.70;78.00;103108.22;5093210;28;20085;-40
2021/03/20 06:36:02;;;;;;;6.85;5.45;;;;;;;0.59;76.77;103118.78;5094154;28;20032;-40
2021/03/20 06:39:00;;;;;;;10.18;5.45;;;;;;;0.69;76.75;103116.31;5097223;28;20023;-40
2021/03/20 06:41:39;;;;;;;8.10;5.53;;;;;;;0.73;77.23;103110.66;5097571;28;20107;-40
2021/03/20 06:44:39;;;;;;;8.65;5.97;;;;;;;0.70;77.13;103120.69;5097056;28;20028;-41
2021/03/20 06:47:12;;;;;;;7.38;5.20;;;;;;;0.66;75.82;103122.69;5054384;28;20064;-40
2021/03/20 06:49:58;;;;;;;8.23;5.30;;;;;;;0.80;76.89;103118.19;5054559;28;20033;-41
2021/03/20 06:52:25;;;;;;;6.72;5.55;;;;;;;0.91;77.13;103128.91;5054482;28;20029;-40
2021/03/20 06:55:19;;;;;;;6.97;5.47;;;;;;;0.91;76.38;103126.25;5054174;28;20527;-40
2021/03/20 06:57:46;;;;;;;6.82;5.07;;;;;;;0.98;75.81;103127.53;5054299;28;20605;-41
2021/03/20 07:00:22;;;;;;;5.85;4.88;;;;;;;1.00;75.77;103136.25;5054379;28;20116;-41
2021/03/20 07:03:06;;;;;;;6.72;5.28;;;;;;;0.97;74.69;103136.44;5054330;28;20029;-41
2021/03/20 07:05:47;;;;;;;11.30;5.93;;;;;;;1.00;75.06;103141.56;5054512;28;20167;-41
2021/03/20 07:08:25;;;;;;;6.95;5.10;;;;;;;1.01;76.11;103140.59;5054453;28;20048;-41
2021/03/20 07:10:55;;;;;;;7.00;5.35;;;;;;;1.13;75.70;103142.38;5054320;28;20106;-41
2021/03/20 07:13:20;;;;;;;7.25;5.45;;;;;;;1.23;75.77;103143.41;5053885;28;20029;-40
2021/03/20 07:16:05;;;;;;;5.50;4.83;;;;;;;1.29;74.90;103147.41;5054421;28;20051;-41
2021/03/20 07:18:37;;;;;;;6.72;5.65;;;;;;;1.29;74.02;103156.25;5054008;28;20060;-41
2021/03/20 07:21:22;;;;;;;9.68;6.05;;;;;;;1.46;74.77;103156.81;5054264;28;20049;-41
2021/03/20 07:24:12;;;;;;;8.52;5.88;;;;;;;1.45;73.29;103152.44;5076234;28;20036;-41
2021/03/20 07:26:57;;;;;;;7.55;5.10;;;;;;;1.55;73.81;103158.78;5096542;28;20066;-41
2021/03/20 07:29:41;;;;;;;7.88;5.40;;;;;;;1.68;74.46;103164.91;5096931;28;20024;-41
2021/03/20 07:32:07;;;;;;;7.13;5.40;;;;;;;1.69;73.60;103155.09;5096444;28;20024;-41
2021/03/20 07:34:34;;;;;;;6.70;4.85;;;;;;;1.66;71.96;103163.31;5096112;28;20078;-41
2021/03/20 07:37:12;;;;;;;5.75;4.93;;;;;;;1.79;73.44;103161.41;5096010;28;20024;-41
2021/03/20 07:39:48;;;;;;;5.93;4.40;;;;;;;1.85;72.18;103165.44;5096382;28;20027;-38
2021/03/20 07:42:32;;;;;;;7.05;4.78;;;;;;;2.00;74.09;103166.94;5096768;28;20032;-41
2021/03/20 07:45:06;;;;;;;8.02;4.55;;;;;;;2.14;72.63;103171.19;5095933;28;20027;-40
2021/03/20 07:47:39;;;;;;;6.10;4.55;;;;;;;2.16;70.74;103169.28;5094113;28;20027;-40
2021/03/20 07:50:22;;;;;;;8.82;5.68;;;;;;;2.19;70.37;103169.03;5096069;28;20460;-40
2021/03/20 07:53:11;;;;;;;15.55;9.05;;;;;;;2.17;69.59;103168.31;5096027;28;20032;-41
2021/03/20 07:56:03;;;;;;;9.23;6.95;;;;;;;2.34;71.48;103162.50;5053883;28;20041;-41
2021/03/20 07:58:40;;;;;;;9.68;5.57;;;;;;;2.54;71.31;103168.97;5053314;28;20094;-41
2021/03/20 08:01:24;;;;;;;7.20;4.50;;;;;;;2.57;69.06;103163.34;5053528;28;20044;-41
2021/03/20 08:03:52;;;;;;;6.25;4.53;;;;;;;2.73;69.67;103168.31;5053223;28;20572;-40
2021/03/20 08:06:22;;;;;;;6.32;4.47;;;;;;;2.70;67.84;103161.41;5053123;28;20041;-41
2021/03/20 08:08:48;;;;;;;4.88;3.30;;;;;;;2.84;67.60;103158.47;5053211;28;20029;-41
2021/03/20 08:11:33;;;;;;;6.60;3.90;;;;;;;3.00;68.76;103159.91;5053178;28;20143;-40
2021/03/20 08:14:28;;;;;;;6.72;3.53;;;;;;;3.05;67.10;103157.72;5053029;28;20041;-41
2021/03/20 08:16:54;;;;;;;6.55;3.75;;;;;;;3.01;66.68;103157.09;5051993;28;20044;-41
2021/03/20 08:19:20;;;;;;;4.85;3.25;;;;;;;2.95;64.25;103146.06;5052597;28;20045;-41
2021/03/20 08:21:55;;;;;;;6.90;4.00;;;;;;;2.99;62.79;103142.19;5052624;28;20106;-40
2021/03/20 08:24:51;;;;;;;4.88;3.28;;;;;;;3.16;65.41;103151.47;5052917;28;20124;-41
2021/03/20 08:27:54;;;;;;;6.53;5.82;;;;;;;3.12;63.97;103147.34;5051534;28;20041;-41
2021/03/20 08:30:55;;;;;;;7.82;6.43;;;;;;;3.25;64.52;103146.22;5052732;28;20041;-41
2021/03/20 08:33:30;;;;;;;13.75;6.72;;;;;;;3.30;63.77;103144.00;5087274;28;20036;-41
2021/03/20 08:36:17;;;;;;;22.88;20.42;;;;;;;3.48;63.75;103146.16;5095742;28;20031;-41
2021/03/20 08:38:42;;;;;;;15.25;13.85;;;;;;;3.66;59.90;103149.09;5093501;28;20028;-41
2021/03/20 08:41:25;;;;;;;9.43;7.73;;;;;;;3.82;60.21;103147.69;5095096;28;20475;-41
2021/03/20 08:44:03;;;;;;;8.45;7.65;;;;;;;3.93;58.24;103148.59;5095060;28;20035;-41
2021/03/20 08:46:46;;;;;;;6.55;5.70;;;;;;;4.01;58.24;103146.13;5095050;28;20028;-41
2021/03/20 08:49:25;;;;;;;5.03;3.50;;;;;;;4.03;60.91;103142.31;5094030;28;20021;-41
2021/03/20 08:52:26;;;;;;;3.78;2.92;;;;;;;4.09;60.34;103149.81;5095137;28;20031;-41
2021/03/20 08:55:00;;;;;;;3.63;2.70;;;;;;;4.10;59.28;103146.19;5095061;28;20012;-40
2021/03/20 08:57:47;;;;;;;4.20;2.97;;;;;;;4.21;58.69;103149.75;5094506;28;20043;-41
2021/03/20 09:00:31;;;;;;;3.38;2.45;;;;;;;4.23;59.70;103153.13;5093870;28;20067;-41
2021/03/20 09:03:03;;;;;;;5.38;2.83;;;;;;;4.26;58.60;103145.69;5094467;28;20459;-41
2021/03/20 09:05:40;;;;;;;4.13;2.63;;;;;;;4.44;58.50;103145.03;5094109;28;20467;-41
2021/03/20 09:08:27;;;;;;;4.47;2.40;;;;;;;4.44;57.28;103145.94;5094004;28;20506;-41
2021/03/20 09:11:03;;;;;;;5.78;2.25;;;;;;;4.50;55.66;103149.91;5094274;28;20394;-41
2021/03/20 09:13:44;;;;;;;3.57;2.10;;;;;;;4.37;55.27;103152.78;5093975;28;20028;-40
2021/03/20 09:16:20;;;;;;;2.97;1.95;;;;;;;4.52;55.47;103150.59;5093735;28;20439;-40
2021/03/20 09:18:46;;;;;;;2.70;1.90;;;;;;;4.62;55.12;103144.28;5094099;28;20092;-41
2021/03/20 09:21:12;;;;;;;5.27;2.07;;;;;;;4.80;54.88;103144.50;5094166;28;20413;-41
2021/03/20 09:23:43;;;;;;;3.33;1.75;;;;;;;4.82;52.13;103145.19;5094059;28;20066;-41
2021/03/20 09:26:33;;;;;;;3.47;1.80;;;;;;;4.82;52.23;103153.22;5094088;28;20020;-41
2021/03/20 09:29:03;;;;;;;2.42;1.75;;;;;;;4.78;52.27;103143.78;5093609;28;20055;-41
2021/03/20 09:31:29;;;;;;;2.70;1.58;;;;;;;4.99;55.11;103149.06;5093641;28;20032;-40
2021/03/20 09:33:56;;;;;;;3.10;1.80;;;;;;;5.21;54.70;103147.09;5094451;28;20034;-41
2021/03/20 09:36:22;;;;;;;4.78;2.47;;;;;;;5.15;52.77;103144.00;5094471;28;20742;-41
2021/03/20 09:38:52;;;;;;;2.50;1.90;;;;;;;5.15;52.65;103148.50;5094154;28;20034;-41
2021/03/20 09:41:21;;;;;;;3.15;2.20;;;;;;;5.21;53.62;103149.78;5094009;28;20039;-41
2021/03/20 09:44:09;;;;;;;3.15;2.08;;;;;;;5.28;52.30;103154.47;5093779;28;20096;-41
2021/03/20 09:46:38;;;;;;;2.55;1.90;;;;;;;5.35;52.44;103150.22;5094544;28;20364;-41
2021/03/20 09:49:06;;;;;;;4.25;1.88;;;;;;;5.33;51.45;103152.22;5094271;28;20052;-41
2021/03/20 09:51:49;;;;;;;2.22;1.90;;;;;;;5.56;51.53;103146.53;5093427;28;20027;-41
2021/03/20 09:59:43;;;;;;;2.47;1.70;;;;;;;6.03;51.10;103150.19;5093887;28;20032;-41
2021/03/20 10:02:09;;;;;;;3.83;1.80;;;;;;;6.07;52.18;103145.41;5093811;28;20032;-41
2021/03/20 10:04:58;;;;;;;3.27;1.70;;;;;;;6.07;48.80;103142.72;5093272;28;20480;-41
2021/03/20 10:07:24;;;;;;;3.03;2.13;;;;;;;6.06;49.15;103146.41;5093842;28;20495;-41
2021/03/20 10:09:53;;;;;;;2.90;2.17;;;;;;;6.22;51.83;103135.03;5094067;28;20036;-41
2021/03/20 10:12:28;;;;;;;3.17;2.30;;;;;;;6.23;50.10;103140.25;5096602;28;20024;-41
2021/03/20 10:14:59;;;;;;;2.80;2.10;;;;;;;6.38;50.84;103135.25;5097633;28;20032;-41
2021/03/20 10:17:30;;;;;;;2.80;2.22;;;;;;;6.50;50.56;103135.94;5098216;28;20368;-41
2021/03/20 10:20:05;;;;;;;4.53;2.30;;;;;;;6.55;50.78;103130.94;5097816;28;20040;-41
2021/03/20 10:22:34;;;;;;;3.38;2.20;;;;;;;6.54;50.94;103134.59;5097289;28;20032;-41
2021/03/20 10:25:02;;;;;;;2.92;2.10;;;;;;;6.50;49.80;103127.88;5097467;28;20513;-41
2021/03/20 10:27:34;;;;;;;3.35;2.20;;;;;;;6.34;50.58;103132.00;5097670;28;20410;-41
2021/03/20 10:30:22;;;;;;;2.80;2.28;;;;;;;6.45;52.02;103123.78;5097926;28;20085;-41
2021/03/20 10:32:59;;;;;;;2.55;2.08;;;;;;;6.24;49.25;103120.44;5097327;28;20080;-41
2021/03/20 10:35:26;;;;;;;3.72;2.40;;;;;;;6.19;50.59;103111.97;5098129;28;20158;-41
2021/03/20 10:37:52;;;;;;;3.50;2.13;;;;;;;6.39;51.39;103108.25;5097222;28;20028;-41
2021/03/20 10:40:27;;;;;;;3.45;2.00;;;;;;;6.60;50.75;103109.84;5097990;28;20035;-41
2021/03/20 10:42:58;;;;;;;4.03;2.22;;;;;;;6.77;50.90;103100.94;5097392;28;20027;-41
2021/03/20 10:45:38;;;;;;;3.25;2.25;;;;;;;7.02;51.43;103101.22;5097000;28;20505;-41
2021/03/20 10:48:18;;;;;;;2.78;2.15;;;;;;;7.09;48.97;103099.63;5096656;28;20396;-41
2021/03/20 10:50:48;;;;;;;3.97;2.45;;;;;;;7.29;49.09;103095.78;5097192;28;20128;-41
2021/03/20 10:53:26;;;;;;;2.95;2.35;;;;;;;7.38;49.87;103094.84;5097080;28;20077;-41
2021/03/20 10:55:55;;;;;;;4.43;2.53;;;;;;;7.08;49.29;103097.94;5097399;28;20377;-41
2021/03/20 10:58:28;;;;;;;4.18;2.00;;;;;;;7.05;50.07;103096.38;5096790;28;20028;-41
2021/03/20 11:00:54;;;;;;;2.53;1.98;;;;;;;7.17;48.80;103088.91;5097306;28;20059;-41
2021/03/20 11:03:36;;;;;;;3.17;1.90;;;;;;;7.27;49.14;103084.34;5097298;28;20452;-41
2021/03/20 11:06:19;;;;;;;3.97;2.08;;;;;;;7.15;47.90;103080.16;5096189;28;20407;-41
2021/03/20 11:08:48;;;;;;;2.50;1.80;;;;;;;7.34;49.04;103077.31;5096716;28;20383;-41
2021/03/20 11:11:13;;;;;;;2.40;1.80;;;;;;;7.48;48.16;103074.06;5096608;28;20032;-41
2021/03/20 11:13:44;;;;;;;2.30;1.80;;;;;;;7.34;45.06;103068.41;5097107;28;20023;-41
2021/03/20 11:16:11;;;;;;;2.03;1.63;;;;;;;7.35;46.55;103068.22;5096676;28;20456;-41
2021/03/20 11:18:51;;;;;;;2.20;1.63;;;;;;;7.35;46.36;103062.00;5096338;28;20479;-41
2021/03/20 11:21:39;;;;;;;3.17;1.60;;;;;;;7.19;46.31;103068.09;5096046;28;20047;-41
2021/03/20 11:24:21;;;;;;;2.45;1.80;;;;;;;7.26;46.44;103057.56;5095437;28;20460;-41
2021/03/20 11:26:48;;;;;;;2.90;1.75;;;;;;;7.35;45.40;103062.84;5095979;28;20042;-41
2021/03/20 11:29:27;;;;;;;1.70;1.50;;;;;;;7.31;42.84;103064.16;5096165;28;20111;-40
2021/03/20 11:31:58;;;;;;;2.30;1.50;;;;;;;7.45;45.18;103062.75;5096618;28;20439;-43
2021/03/20 11:34:37;;;;;;;2.47;1.75;;;;;;;7.60;43.06;103054.97;5096109;28;20103;-40
2021/03/20 11:37:11;;;;;;;2.10;1.35;;;;;;;7.74;44.03;103047.16;5096052;28;20031;-40
2021/03/20 11:39:36;;;;;;;2.35;1.63;;;;;;;7.94;44.07;103050.47;5096041;28;20035;-40
2021/03/20 11:42:06;;;;;;;2.87;1.63;;;;;;;7.94;43.64;103037.00;5095895;28;20043;-40
2021/03/20 11:44:35;;;;;;;2.00;1.50;;;;;;;8.06;46.06;103050.22;5095852;28;20365;-40
2021/03/20 11:47:02;;;;;;;4.47;2.15;;;;;;;8.10;44.28;103041.66;5095826;28;20024;-40
2021/03/20 11:49:50;;;;;;;2.38;1.55;;;;;;;8.34;47.47;103043.56;5094820;28;20064;-40
2021/03/20 11:52:23;;;;;;;2.35;1.73;;;;;;;8.14;42.94;103042.16;5094947;28;20126;-40
2021/03/20 11:55:05;;;;;;;3.72;1.90;;;;;;;7.97;44.07;103041.25;5095755;28;20107;-41
2021/03/20 11:57:38;;;;;;;2.65;1.73;;;;;;;8.18;44.07;103027.34;5095652;28;20089;-40
2021/03/20 12:00:30;;;;;;;2.35;1.60;;;;;;;8.30;45.02;103034.16;5095886;28;20028;-40
2021/03/20 12:02:57;;;;;;;2.00;1.33;;;;;;;8.32;42.75;103020.50;5095494;28;20106;-40
2021/03/20 12:05:32;;;;;;;2.75;1.63;;;;;;;8.39;43.87;103018.84;5095485;28;20033;-40
2021/03/20 12:08:25;;;;;;;6.93;2.15;;;;;;;8.52;43.31;103024.63;5095702;28;20028;-40
2021/03/20 12:11:08;;;;;;;2.20;1.67;;;;;;;8.55;42.46;103027.03;5096148;28;20028;-40
2021/03/20 12:13:44;;;;;;;1.60;1.30;;;;;;;8.67;43.39;103019.44;5095693;28;20111;-41
2021/03/20 12:16:26;;;;;;;1.90;1.50;;;;;;;8.77;43.84;103012.88;5095012;28;20536;-41